»·PEaware :: N626N KBLH-KPRC

N626N :: KBLH-KPRC

FLIGHT INFORMATION

Flight Status: Arrived
Operator: Privately registered:
United States
More flights under this callsign
Pilot: Bruno O. (13284)
Aircraft: Unknown
(B60T)
More flights by this aircraft type
Origin: KBLH Blythe
United States
Destination: KPRC Love
United States
More flights between these airports :: More routes between these airports
Route: +DCT BLH V135 EED V12 DRK DCT
File this flight plan on PilotEdge
Remarks:
Altitude:
(Current/Filed)
16,000ft
Speed:
(Current/Filed)
270kts
Departed: 10-Jan-18 09:38 AM
Arrived: 10-Jan-18 10:43 AM
Distance/Time
Traveled:
129nm/1:05
Distance/Time
To Go:
Arrived

Flight Plot

Page will automatically refresh every two minutes.

Flight plan parsing failed; only flown route is shown


Map Options




Map Legend


Flown Route
Filed Route
Departure Airport
Arrival Airport
Navaid (VOR, NDB)
Fix

Horizontal Profiles

Position Reports

Time Latitude Longitude Heading Altitude Ground
Speed
10-Jan-18 09:29 33.614836 -114.713610 0 400ft 0kts
10-Jan-18 09:30 33.614836 -114.713610 0 400ft 0kts
10-Jan-18 09:31 33.614836 -114.713610 0 400ft 0kts
10-Jan-18 09:32 33.614836 -114.713610 0 400ft 0kts
10-Jan-18 09:33 33.614836 -114.713610 0 400ft 0kts
10-Jan-18 09:34 33.614836 -114.713610 0 400ft 0kts
10-Jan-18 09:35 33.614836 -114.713610 0 400ft 0kts
10-Jan-18 09:36 33.614836 -114.713610 0 400ft 0kts
10-Jan-18 09:37 33.614836 -114.713610 359 400ft 0kts
10-Jan-18 09:38 33.614836 -114.713610 359 400ft 0kts
10-Jan-18 09:39 33.614836 -114.713610 359 400ft 0kts
10-Jan-18 09:40 33.614836 -114.713610 359 400ft 0kts
10-Jan-18 09:41 33.615151 -114.711830 90 400ft 11kts
10-Jan-18 09:42 33.615166 -114.707328 81 400ft 15kts
10-Jan-18 09:43 33.616537 -114.706890 274 400ft 0kts
10-Jan-18 09:44 33.616097 -114.727851 259 1287ft 141kts
10-Jan-18 09:45 33.582796 -114.751227 184 4090ft 163kts
10-Jan-18 09:46 33.569495 -114.706061 40 6233ft 193kts
10-Jan-18 09:47 33.612691 -114.724618 300 6999ft 195kts
10-Jan-18 09:48 33.662711 -114.750202 357 7001ft 212kts
10-Jan-18 09:49 33.716660 -114.742615 3 8793ft 197kts
10-Jan-18 09:50 33.771319 -114.733913 2 10800ft 197kts
10-Jan-18 09:51 33.825335 -114.725467 1 12810ft 194kts
10-Jan-18 09:52 33.878921 -114.717105 0 14798ft 191kts
10-Jan-18 09:53 33.932595 -114.708667 359 16261ft 184kts
10-Jan-18 09:54 33.985755 -114.700433 0 17005ft 207kts
10-Jan-18 09:55 34.043375 -114.691305 0 17002ft 208kts
10-Jan-18 09:56 34.100613 -114.682223 2 17003ft 207kts
10-Jan-18 09:57 34.156977 -114.665014 6 17003ft 209kts
10-Jan-18 09:58 34.213263 -114.647483 6 17003ft 209kts
10-Jan-18 09:59 34.269833 -114.629899 6 17002ft 209kts
10-Jan-18 10:00 34.326216 -114.612248 6 16997ft 209kts
10-Jan-18 10:01 34.382722 -114.594571 6 16996ft 209kts
10-Jan-18 10:02 34.438990 -114.576958 6 16996ft 209kts
10-Jan-18 10:03 34.495228 -114.559327 6 16996ft 209kts
10-Jan-18 10:04 34.551690 -114.541608 7 16995ft 209kts
10-Jan-18 10:05 34.608076 -114.523884 7 16994ft 209kts
10-Jan-18 10:06 34.664597 -114.506090 7 16984ft 210kts
10-Jan-18 10:07 34.721293 -114.488220 7 16982ft 210kts
10-Jan-18 10:08 34.766374 -114.443636 69 16981ft 256kts
10-Jan-18 10:09 34.763652 -114.353646 82 16983ft 266kts
10-Jan-18 10:10 34.760982 -114.263663 82 16984ft 266kts
10-Jan-18 10:11 34.758601 -114.173675 82 16984ft 266kts
10-Jan-18 10:12 34.756210 -114.083692 82 16983ft 266kts
10-Jan-18 10:13 34.753740 -113.992921 82 16981ft 267kts
10-Jan-18 10:14 34.751213 -113.902081 83 16984ft 270kts
10-Jan-18 10:15 34.748584 -113.810574 83 16983ft 272kts
10-Jan-18 10:16 34.745874 -113.718703 83 16982ft 272kts
10-Jan-18 10:17 34.743096 -113.626728 83 16981ft 272kts
10-Jan-18 10:18 34.740224 -113.534425 83 16981ft 272kts
10-Jan-18 10:19 34.737303 -113.442589 84 16980ft 272kts
10-Jan-18 10:20 34.734314 -113.350440 84 16980ft 272kts
10-Jan-18 10:21 34.731262 -113.258543 84 16980ft 272kts
10-Jan-18 10:22 34.728158 -113.166309 84 16988ft 272kts
10-Jan-18 10:23 34.724974 -113.074386 84 16989ft 272kts
10-Jan-18 10:24 34.721696 -112.982428 84 16985ft 273kts
10-Jan-18 10:25 34.718381 -112.891168 85 15598ft 266kts
10-Jan-18 10:26 34.715083 -112.801793 86 14165ft 264kts
10-Jan-18 10:27 34.711718 -112.713653 86 12730ft 256kts
10-Jan-18 10:28 34.727891 -112.635650 52 11370ft 233kts
10-Jan-18 10:29 34.762540 -112.567361 52 10371ft 236kts
10-Jan-18 10:30 34.797710 -112.505179 41 9988ft 207kts
10-Jan-18 10:31 34.841000 -112.454427 39 9094ft 218kts
10-Jan-18 10:32 34.884187 -112.406430 39 8991ft 208kts
10-Jan-18 10:33 34.926857 -112.358679 39 8987ft 207kts
10-Jan-18 10:34 34.960894 -112.320416 39 8981ft 192kts
10-Jan-18 10:35 35.005657 -112.269766 39 8977ft 185kts
10-Jan-18 10:36 35.023492 -112.226156 103 8990ft 185kts
10-Jan-18 10:37 35.006795 -112.166410 110 8975ft 186kts
10-Jan-18 10:38 34.973711 -112.129959 188 8989ft 172kts
10-Jan-18 10:39 34.918481 -112.139715 203 8983ft 170kts
10-Jan-18 10:40 34.886865 -112.167021 227 8986ft 167kts
10-Jan-18 10:41 34.853466 -112.206318 225 8989ft 167kts
10-Jan-18 10:42 34.818966 -112.244015 224 8999ft 167kts
10-Jan-18 10:43 34.786017 -112.279421 223 8352ft 154kts
10-Jan-18 10:44 34.753045 -112.314732 222 7443ft 156kts
10-Jan-18 10:45 34.722353 -112.347324 222 6599ft 125kts
10-Jan-18 10:46 34.698075 -112.373253 222 6004ft 113kts
10-Jan-18 10:47 34.675971 -112.396182 222 5459ft 99kts
10-Jan-18 10:48 34.656002 -112.417769 221 5048ft 51kts
10-Jan-18 10:49 34.653891 -112.418863 137 5048ft 0kts
10-Jan-18 10:50 34.650986 -112.421369 220 5048ft 17kts
10-Jan-18 10:51 34.647174 -112.425281 153 5048ft 12kts
10-Jan-18 10:52 34.646520 -112.424981 231 5048ft 0kts
10-Jan-18 10:53 34.646520 -112.424981 231 5048ft 0kts
10-Jan-18 10:54 34.646520 -112.424981 231 5048ft 0kts
10-Jan-18 10:55 34.646520 -112.424981 231 5048ft 0kts
10-Jan-18 10:56 34.646520 -112.424981 231 5048ft 0kts
10-Jan-18 10:57 34.646520 -112.424981 231 5048ft 0kts
10-Jan-18 10:58 34.646520 -112.424981 231 5048ft 0kts
10-Jan-18 10:59 34.646520 -112.424981 231 5048ft 0kts
10-Jan-18 11:00 34.646520 -112.424981 231 5048ft 0kts
10-Jan-18 11:01 34.646520 -112.424981 231 5048ft 0kts
10-Jan-18 11:02 34.646520 -112.424981 231 5048ft 0kts

Navigation Log

Ident Type
Flight plan parsing failed, navigation log unavailable